METAR / TAF

Die METAR- und TAF-Liste ist aus technischen Gründen (Verfügbarkeit, Update-Zyklen) nicht für ein Meteo-Briefing gedacht. Benutzen Sie stattdessen skybriefing der Skyguide  oder das TAMSI (MeteoSchweiz-eigene Meteo Selfbriefing-Plattform für Firmen aus der Aviatik; Anfragen über das

Kontaktformular

METAR Schweiz

METAR     LSZH 232250Z 34003KT 9999 FEW076 BKN140 12/10 Q1020 NOSIG=
METAR     LSZH 232320Z 31004KT 9999 FEW076 BKN130 12/10 Q1020 NOSIG=
METAR     LSGG 232250Z AUTO 32001KT CAVOK 12/11 Q1021 NOSIG=
METAR     LSGG 232320Z AUTO 28001KT 9999 SCT067 BKN200 12/11 Q1021
               NOSIG=
METAR     LFSB 232300Z AUTO 29002KT CAVOK 12/10 Q1020 NOSIG=
METAR     LSZB 232250Z AUTO VRB01KT 9000 OVC080 SCT140 11/11 Q1020=
METAR     LSZB 232320Z AUTO VRB02KT 9999 BKN080 SCT160 12/11 Q1020=
METAR     LSZA 232250Z AUTO 17001KT 9999 FEW060 SCT180 15/15 Q1019=
METAR     LSZA 232320Z AUTO VRB01KT 9999 OVC100 15/15 Q1020=
METAR     LSZG 232250Z AUTO 10001KT CAVOK 13/11 Q1020=
METAR     LSZG 232320Z AUTO 02002KT CAVOK 12/11 Q1020=
METAR     LSZR 232250Z AUTO 25003KT CAVOK 14/12 Q1020=
METAR     LSZR 232320Z AUTO 29002KT CAVOK 13/11 Q1020=
METAR     LSGS 232250Z AUTO VRB03KT CAVOK 16/09 Q1020=
METAR     LSGS 232320Z AUTO VRB02KT 9999 SCT090 16/09 Q1020=
METAR     LSGC 232250Z AUTO VRB01KT CAVOK 09/08 Q1022=
METAR     LSGC 232320Z AUTO 25002KT CAVOK 08/08 Q1022=
METAR     LSZC 232250Z AUTO 27003KT 9999 FEW110 OVC160 14/11 Q1020=
METAR     LSZC 232320Z AUTO 26003KT 220V290 9999 OVC150 SCT///CB
               13/11 Q1020=
METAR RRA LSZL 232250Z AUTO VRB02KT 9999NDV FEW050 SCT059 17/14
               Q1019 RMK=
METAR     LSZL 232320Z NIL=
METAR     LSZS 232250Z AUTO 21004KT 120V290 9999 -RA BKN046TCU
               SCT070 06/04 Q1023=
METAR     LSZS 232320Z AUTO 15002KT 9999 BKN028 OVC047TCU 06/05
               Q1023=
METAR RRA LSMA 232250Z AUTO 00000KT 9999NDV FEW052 SCT059 BKN160
               13/12 Q1021 RMK=
METAR     LSMA 232320Z NIL=
METAR RRA LSMD 232250Z AUTO VRB01KT 9999NDV FEW078 SCT140 BKN160
               13/10 Q1021 RMK=
METAR     LSMD 232320Z NIL=
METAR RRA LSME 232250Z AUTO VRB01KT 9999NDV BKN050 BKN150 13/12
               Q1021 RMK=
METAR     LSME 232320Z NIL=
METAR RRA LSMM 232250Z AUTO VRB02KT 9999NDV FEW053 BKN060 BKN071
               12/11 Q1021 RMK=
METAR     LSMM 232320Z NIL=
METAR RRA LSMP 232250Z AUTO 22002KT 9999NDV FEW080 BKN160 13/11
               Q1020 RMK=
METAR     LSMP 232320Z NIL=
METAR     LSMS 232250Z AUTO VRB03KT CAVOK 16/09 Q1020=
METAR     LSMS 232320Z AUTO VRB02KT 9999 SCT090 16/09 Q1020=
Aktualisiert am Sonntag, 24. September 2017, 01:33 Uhr

TAF Schweiz

TAF     LSZH 232025Z 2321/2503 VRB03KT 9999 SCT040 BKN090
             TX19/2414Z TN09/2404Z PROB40 TEMPO 2321/2406 SHRA
             SCT040TCU PROB30 2405/2407 2000 BCFG BKN003 BECMG
             2409/2412 04005KT=
TAF     LSGG 232025Z 2321/2503 VRB02KT CAVOK TX20/2414Z TN11/2405Z
             TEMPO 2400/2409 9999 SCT080 BECMG 2408/2411 05008KT
             BECMG 2417/2419 VRB02KT=
TAF     LFSB 231700Z 2318/2418 33004KT 9999 FEW050 BKN180 BECMG
             2401/2403 4500 BR PROB30 TEMPO 2403/2407 3000 BCFG
             BKN005 BECMG 2407/2409 9999 NSW FEW015=
TAF AAB LSGS 231923Z 2319/2324 CNL=
TAF     LSGS 231425Z 2315/2324 25010KT 9999 SCT100 BECMG 2316/2318
             VRB03KT=
TAF AAH LSZA 231954Z 2319/2324 CNL=
TAF     LSZA 231425Z 2315/2324 20004KT 9999 FEW050 BKN130 PROB40
             TEMPO 2317/2321 SHRA SCT045TCU=
TAF AAD LSZB 231954Z 2319/2324 CNL=
TAF     LSZB 231425Z 2315/2324 30005KT CAVOK BECMG 2315/2318 9999
             FEW040 PROB30 TEMPO 2318/2321 SHRA SCT045TCU=
TAF AAE LSZG 231954Z 2319/2324 CNL=
TAF     LSZG 231425Z 2315/2324 06005KT 9999 SCT045 PROB30 TEMPO
             2321/2324 SHRA SCT040TCU=
TAF AAF LSZR 231954Z 2319/2324 CNL=
TAF     LSZR 231425Z 2315/2324 31005KT CAVOK BECMG 2315/2318 FEW040=
TAF AAC LSGC 231923Z 2319/2324 CNL=
TAF     LSGC 231425Z 2315/2324 02005KT 9999 SCT035=
TAF AAG LSZS 231954Z 2319/2324 CNL=
TAF AAA LSZS 231621Z 2316/2324 22011KT 9999 BKN060 TX15/2315Z BECMG
             2317/2319 VRB03KT TEMPO 2317/2321 SHRA SCT040TCU=
TAF     LSZS 231425Z 2315/2324 VRB03KT 9999 BKN060 TX15/2315Z TEMPO
             2317/2321 SHRA SCT040TCU=
TAF     LSMA 231625Z 2317/2423 VRB03KT 9999 FEW040 PROB40 TEMPO
             2320/2408 SHRA SCT040TCU PROB30 2405/2408 3000 BCFG
             BKN006=
TAF     LSMD 231625Z 2317/2423 VRB03KT 9999 FEW040 PROB40 TEMPO
             2320/2406 SHRA SCT040TCU PROB30 2405/2408 1500 BCFG
             BKN003=
TAF     LSME 231625Z 2317/2423 VRB03KT 9999 FEW040 PROB40 TEMPO
             2320/2408 SHRA SCT040TCU PROB30 2405/2408 3000 BCFG
             BKN006=
TAF     LSMM 231625Z 2317/2423 VRB03KT 9999 FEW040 PROB40 TEMPO
             2320/2407 SHRA SCT040TCU PROB30 2404/2406 4500 BR=
TAF     LSMP 231625Z 2317/2423 VRB03KT 9999 SCT090 PROB30 2402/2408
             0100 FG VV001=
Aktualisiert am Sonntag, 24. September 2017, 00:03 Uhr